Flag for Algeria

Past Weather in 35°41'48.9"N, 0°37'59.0"W, Algeria — Yesterday and Last 2 Weeks

Currently: 55 °F. Passing clouds. (Weather station: Oran / Es Senia, Algeria). See more current weather

Past Weather in 35°41'48.9"N, 0°37'59.0"W — Graph

°F

35°41'48.9"N, 0°37'59.0"W Temperature Yesterday

Maximum temperature yesterday: 70 °F (at 1:30 pm)
Minimum temperature yesterday: 43 °F (at 7:30 am)
Average temperature yesterday: 57 °F

High & Low Weather Summary for the Past Weeks

 TemperatureHumidityPressure
High79 °F (Feb 8, 3:00 pm)100% (Feb 19, 2:00 am)30.54 "Hg (Feb 19, 2:00 am)
Low39 °F (Feb 8, 8:30 am)13% (Feb 8, 3:00 pm)29.47 "Hg (Feb 9, 4:00 pm)
Average60 °F71%30.13 "Hg
* Reported Feb 7 12:00 am — Feb 22 12:30 am, 35°41'48.9"N, 0°37'59.0"W. Weather by CustomWeather, © 2024

Note: Actual official high and low records may vary slightly from our data, if they occured in-between our weather recording intervals... More about our weather records

35°41'48.9"N, 0°37'59.0"W Weather History for the Previous 24 Hours

Scroll right to see more
 ConditionsComfort  
Time TempWeatherWind HumidityBarometerVisibility
12:30 am
Thu, Feb 22
55 °FPassing clouds.3 mph72%30.21 "HgN/A
12:00 am55 °FPassing clouds.1 mph77%30.21 "HgN/A
11:30 pm
Wed, Feb 21
55 °FPassing clouds.2 mph82%30.24 "HgN/A
11:00 pm54 °FPassing clouds.5 mph88%30.24 "HgN/A
10:30 pm55 °FPassing clouds.2 mph82%30.24 "HgN/A
10:00 pm57 °FPassing clouds.2 mph72%30.24 "HgN/A
9:30 pm59 °FPassing clouds.3 mph72%30.24 "HgN/A
9:00 pm59 °FPassing clouds.3 mph72%30.24 "HgN/A
8:30 pm59 °FPassing clouds.3 mph77%30.24 "HgN/A
8:00 pm59 °FPassing clouds.5 mph82%30.24 "HgN/A
7:30 pm59 °FPassing clouds.6 mph82%30.24 "HgN/A
7:00 pm63 °FPassing clouds.6 mph68%30.24 "HgN/A
6:30 pm64 °FScattered clouds.7 mph64%30.24 "HgN/A
6:00 pm68 °FScattered clouds.6 mph56%30.24 "HgN/A
5:30 pm68 °FSunny.6 mph56%30.24 "Hg10 mi
5:00 pm70 °FSunny.6 mph46%30.24 "Hg10 mi
4:30 pm70 °FSunny.6 mph43%30.24 "Hg10 mi
4:00 pm70 °FSunny.7 mph46%30.24 "Hg10 mi
3:30 pm70 °FPassing clouds.6 mph46%30.27 "HgN/A
3:00 pm70 °FSunny.7 mph46%30.27 "Hg10 mi
2:30 pm70 °FSunny.5 mph40%30.30 "Hg10 mi
2:00 pm70 °FSunny.5 mph40%30.30 "Hg10 mi
1:30 pm70 °FSunny.5 mph40%30.33 "Hg10 mi
1:00 pm66 °FSunny.3 mph52%30.33 "Hg10 mi
12:30 pm64 °FPassing clouds.5 mph60%30.36 "HgN/A
12:00 pm61 °FPassing clouds.5 mph72%30.36 "Hg5 mi
11:30 am57 °FPassing clouds.5 mph82%30.36 "Hg5 mi
11:00 am55 °FPassing clouds.3 mph82%30.36 "Hg4 mi
10:30 am50 °FFog.3 mph100%30.39 "Hg1 mi
10:00 am50 °FFog.5 mph100%30.36 "Hg0 mi
9:30 am48 °FFog.3 mph100%30.39 "Hg0 mi
9:00 am46 °FFog.3 mph100%30.36 "Hg0 mi
8:30 am45 °FFog.2 mph93%30.36 "Hg2 mi
8:00 am43 °FFog.1 mph100%30.33 "Hg1 mi
7:30 am43 °FFog.2 mph100%30.33 "Hg2 mi
7:00 am45 °FFog.1 mph100%30.33 "Hg2 mi
6:30 am45 °FFog.3 mph93%30.33 "Hg2 mi
6:00 am48 °FFog.1 mph94%30.33 "Hg2 mi
5:30 am50 °FPassing clouds.2 mph94%30.33 "Hg4 mi
5:00 am50 °FPassing clouds.1 mph94%30.33 "Hg4 mi
4:30 am52 °FPassing clouds.1 mph94%30.33 "Hg4 mi
4:00 am52 °FPassing clouds.3 mph94%30.33 "Hg4 mi
3:30 am52 °FPassing clouds.2 mph94%30.33 "Hg4 mi
3:00 am52 °FPassing clouds.3 mph94%30.33 "Hg4 mi
2:30 am48 °FPassing clouds.3 mph94%30.33 "Hg4 mi
2:00 am48 °FPassing clouds.5 mph94%30.33 "Hg4 mi
Weather by CustomWeather, © 2024

See weather overview